sensor_id;sensor_type;location;lat;lon;timestamp;pressure;altitude;pressure_sealevel;temperature;humidity
65534;BME280;53640;55.838;37.184;2024-01-30T00:01:16;100270.53;;;-2.68;65.11
65534;BME280;53640;55.838;37.184;2024-01-30T00:03:43;100274.78;;;-2.65;65.22
65534;BME280;53640;55.838;37.184;2024-01-30T00:06:11;100272.00;;;-2.64;65.06
65534;BME280;53640;55.838;37.184;2024-01-30T00:08:38;100257.00;;;-2.76;65.23
65534;BME280;53640;55.838;37.184;2024-01-30T00:11:04;100248.75;;;-2.84;64.78
65534;BME280;53640;55.838;37.184;2024-01-30T00:13:31;100275.97;;;-2.69;65.22
65534;BME280;53640;55.838;37.184;2024-01-30T00:15:58;100198.16;;;-3.05;64.65
65534;BME280;53640;55.838;37.184;2024-01-30T00:18:24;100249.03;;;-2.76;65.04
65534;BME280;53640;55.838;37.184;2024-01-30T00:20:51;100263.75;;;-2.72;65.08
65534;BME280;53640;55.838;37.184;2024-01-30T00:23:18;100258.28;;;-2.82;65.06
65534;BME280;53640;55.838;37.184;2024-01-30T00:25:45;100268.09;;;-2.71;65.25
65534;BME280;53640;55.838;37.184;2024-01-30T00:28:11;100250.22;;;-2.80;65.13
65534;BME280;53640;55.838;37.184;2024-01-30T00:30:38;100242.56;;;-2.72;65.05
65534;BME280;53640;55.838;37.184;2024-01-30T00:33:04;100122.00;;;-3.51;64.65
65534;BME280;53640;55.838;37.184;2024-01-30T00:35:31;100261.09;;;-2.59;64.84
65534;BME280;53640;55.838;37.184;2024-01-30T00:37:57;100266.63;;;-2.62;65.12
65534;BME280;53640;55.838;37.184;2024-01-30T00:40:26;100238.56;;;-2.77;64.89
65534;BME280;53640;55.838;37.184;2024-01-30T00:42:53;100253.56;;;-2.65;64.90
65534;BME280;53640;55.838;37.184;2024-01-30T00:45:19;100167.94;;;-3.26;65.05
65534;BME280;53640;55.838;37.184;2024-01-30T00:47:46;100171.84;;;-3.19;65.42
65534;BME280;53640;55.838;37.184;2024-01-30T00:50:12;100254.19;;;-2.62;64.99
65534;BME280;53640;55.838;37.184;2024-01-30T00:52:39;100255.03;;;-2.61;64.89
65534;BME280;53640;55.838;37.184;2024-01-30T00:55:07;100255.88;;;-2.61;65.26
65534;BME280;53640;55.838;37.184;2024-01-30T00:57:34;100232.03;;;-2.85;65.20
65534;BME280;53640;55.838;37.184;2024-01-30T01:00:01;100233.66;;;-2.71;64.86
65534;BME280;53640;55.838;37.184;2024-01-30T01:02:31;100234.13;;;-2.77;65.20
65534;BME280;53640;55.838;37.184;2024-01-30T01:04:58;100242.00;;;-2.64;65.07
65534;BME280;53640;55.838;37.184;2024-01-30T01:07:27;100204.16;;;-2.90;65.13
65534;BME280;53640;55.838;37.184;2024-01-30T01:09:53;100217.13;;;-2.74;64.87
65534;BME280;53640;55.838;37.184;2024-01-30T01:12:20;100245.28;;;-2.61;64.87
65534;BME280;53640;55.838;37.184;2024-01-30T01:14:48;100244.63;;;-2.51;64.86
65534;BME280;53640;55.838;37.184;2024-01-30T01:17:14;100254.91;;;-2.47;64.74
65534;BME280;53640;55.838;37.184;2024-01-30T01:19:41;100252.03;;;-2.44;64.93
65534;BME280;53640;55.838;37.184;2024-01-30T01:22:07;100166.78;;;-2.98;65.03
65534;BME280;53640;55.838;37.184;2024-01-30T01:24:36;100231.88;;;-2.46;64.98
65534;BME280;53640;55.838;37.184;2024-01-30T01:27:06;100223.03;;;-2.58;65.16
65534;BME280;53640;55.838;37.184;2024-01-30T01:29:32;100223.44;;;-2.51;65.14
65534;BME280;53640;55.838;37.184;2024-01-30T01:31:59;100218.34;;;-2.54;65.12
65534;BME280;53640;55.838;37.184;2024-01-30T01:34:25;100191.38;;;-2.72;64.92
65534;BME280;53640;55.838;37.184;2024-01-30T01:36:52;100213.91;;;-2.54;65.05
65534;BME280;53640;55.838;37.184;2024-01-30T01:39:22;100235.72;;;-2.50;65.07
65534;BME280;53640;55.838;37.184;2024-01-30T01:41:51;100214.16;;;-2.46;65.28
65534;BME280;53640;55.838;37.184;2024-01-30T01:44:18;100148.81;;;-2.82;65.24
65534;BME280;53640;55.838;37.184;2024-01-30T01:46:45;100223.63;;;-2.30;65.05
65534;BME280;53640;55.838;37.184;2024-01-30T01:49:12;100209.94;;;-2.48;65.11
65534;BME280;53640;55.838;37.184;2024-01-30T01:51:41;100212.97;;;-2.42;65.29
65534;BME280;53640;55.838;37.184;2024-01-30T01:54:09;100216.72;;;-2.44;64.91
65534;BME280;53640;55.838;37.184;2024-01-30T01:56:36;100223.44;;;-2.51;65.09
65534;BME280;53640;55.838;37.184;2024-01-30T01:59:06;100083.38;;;-3.17;64.92
65534;BME280;53640;55.838;37.184;2024-01-30T02:01:36;100169.97;;;-2.69;64.96
65534;BME280;53640;55.838;37.184;2024-01-30T02:04:07;100226.06;;;-2.27;65.04
65534;BME280;53640;55.838;37.184;2024-01-30T02:06:34;100127.34;;;-2.90;65.07
65534;BME280;53640;55.838;37.184;2024-01-30T02:09:02;100207.47;;;-2.39;64.69
65534;BME280;53640;55.838;37.184;2024-01-30T02:11:28;100224.75;;;-2.22;64.57
65534;BME280;53640;55.838;37.184;2024-01-30T02:13:55;100206.75;;;-2.29;65.01
65534;BME280;53640;55.838;37.184;2024-01-30T02:16:21;100129.19;;;-2.79;64.67
65534;BME280;53640;55.838;37.184;2024-01-30T02:18:48;100200.00;;;-2.34;64.59
65534;BME280;53640;55.838;37.184;2024-01-30T02:21:18;100134.78;;;-2.71;64.59
65534;BME280;53640;55.838;37.184;2024-01-30T02:23:46;100219.34;;;-2.20;64.85
65534;BME280;53640;55.838;37.184;2024-01-30T02:26:14;100130.00;;;-2.66;64.52
65534;BME280;53640;55.838;37.184;2024-01-30T02:28:40;100218.78;;;-2.13;64.75
65534;BME280;53640;55.838;37.184;2024-01-30T02:31:06;100133.25;;;-2.63;64.57
65534;BME280;53640;55.838;37.184;2024-01-30T02:33:33;100213.91;;;-2.19;64.19
65534;BME280;53640;55.838;37.184;2024-01-30T02:35:59;100205.50;;;-2.13;64.44
65534;BME280;53640;55.838;37.184;2024-01-30T02:38:26;100147.69;;;-2.43;64.37
65534;BME280;53640;55.838;37.184;2024-01-30T02:40:53;100194.41;;;-2.18;64.46
65534;BME280;53640;55.838;37.184;2024-01-30T02:43:19;100191.78;;;-2.18;64.74
65534;BME280;53640;55.838;37.184;2024-01-30T02:45:46;100222.44;;;-2.02;64.40
65534;BME280;53640;55.838;37.184;2024-01-30T02:48:13;100199.94;;;-2.21;64.45
65534;BME280;53640;55.838;37.184;2024-01-30T02:50:40;100198.97;;;-2.20;64.42
65534;BME280;53640;55.838;37.184;2024-01-30T02:53:06;100228.47;;;-2.00;64.42
65534;BME280;53640;55.838;37.184;2024-01-30T02:55:33;100231.19;;;-2.13;64.68
65534;BME280;53640;55.838;37.184;2024-01-30T02:58:00;100188.91;;;-2.39;64.59
65534;BME280;53640;55.838;37.184;2024-01-30T03:00:26;100221.88;;;-2.19;64.42
65534;BME280;53640;55.838;37.184;2024-01-30T03:02:52;100167.66;;;-2.50;64.82
65534;BME280;53640;55.838;37.184;2024-01-30T03:05:19;100233.53;;;-1.97;64.65
65534;BME280;53640;55.838;37.184;2024-01-30T03:07:45;100225.31;;;-2.05;64.54
65534;BME280;53640;55.838;37.184;2024-01-30T03:10:12;100216.47;;;-2.17;64.74
65534;BME280;53640;55.838;37.184;2024-01-30T03:12:38;100195.25;;;-2.17;64.49
65534;BME280;53640;55.838;37.184;2024-01-30T03:15:05;100154.53;;;-2.51;64.70
65534;BME280;53640;55.838;37.184;2024-01-30T03:17:32;100166.34;;;-2.44;64.37
65534;BME280;53640;55.838;37.184;2024-01-30T03:19:58;100220.00;;;-2.05;64.32
65534;BME280;53640;55.838;37.184;2024-01-30T03:22:25;100203.09;;;-2.16;64.39
65534;BME280;53640;55.838;37.184;2024-01-30T03:24:51;100243.22;;;-1.85;64.30
65534;BME280;53640;55.838;37.184;2024-01-30T03:27:18;100230.53;;;-1.93;64.41
65534;BME280;53640;55.838;37.184;2024-01-30T03:29:44;100167.25;;;-2.33;64.47
65534;BME280;53640;55.838;37.184;2024-01-30T03:32:11;100243.22;;;-1.85;64.54
65534;BME280;53640;55.838;37.184;2024-01-30T03:34:37;100206.75;;;-2.05;64.29
65534;BME280;53640;55.838;37.184;2024-01-30T03:37:04;100197.34;;;-2.10;64.29
65534;BME280;53640;55.838;37.184;2024-01-30T03:39:30;100221.00;;;-1.95;64.22
65534;BME280;53640;55.838;37.184;2024-01-30T03:41:57;100230.66;;;-1.94;64.37
65534;BME280;53640;55.838;37.184;2024-01-30T03:44:23;100229.34;;;-1.89;64.03
65534;BME280;53640;55.838;37.184;2024-01-30T03:46:50;100229.06;;;-1.97;64.20
65534;BME280;53640;55.838;37.184;2024-01-30T03:49:16;100245.03;;;-1.86;63.79
65534;BME280;53640;55.838;37.184;2024-01-30T03:51:43;100219.88;;;-2.04;64.34
65534;BME280;53640;55.838;37.184;2024-01-30T03:54:09;100253.44;;;-1.92;64.32
65534;BME280;53640;55.838;37.184;2024-01-30T03:56:36;100268.34;;;-1.78;64.18
65534;BME280;53640;55.838;37.184;2024-01-30T03:59:02;100206.53;;;-2.26;63.96
65534;BME280;53640;55.838;37.184;2024-01-30T04:01:30;100174.81;;;-2.39;64.32
65534;BME280;53640;55.838;37.184;2024-01-30T04:03:56;100219.41;;;-2.09;64.36
65534;BME280;53640;55.838;37.184;2024-01-30T04:06:23;100234.38;;;-1.97;64.16
65534;BME280;53640;55.838;37.184;2024-01-30T04:08:49;100244.06;;;-1.85;64.03
65534;BME280;53640;55.838;37.184;2024-01-30T04:11:18;100132.34;;;-2.50;64.14
65534;BME280;53640;55.838;37.184;2024-01-30T04:13:46;100117.25;;;-2.61;64.18
65534;BME280;53640;55.838;37.184;2024-01-30T04:16:20;100184.97;;;-2.22;64.26
65534;BME280;53640;55.838;37.184;2024-01-30T04:18:48;100189.56;;;-2.24;64.78
65534;BME280;53640;55.838;37.184;2024-01-30T04:21:15;100204.28;;;-2.20;64.63
65534;BME280;53640;55.838;37.184;2024-01-30T04:23:41;100260.22;;;-1.88;64.84
65534;BME280;53640;55.838;37.184;2024-01-30T04:26:13;100159.34;;;-2.45;64.86
65534;BME280;53640;55.838;37.184;2024-01-30T04:28:44;100228.94;;;-2.06;64.95
65534;BME280;53640;55.838;37.184;2024-01-30T04:31:11;100207.81;;;-2.08;64.83
65534;BME280;53640;55.838;37.184;2024-01-30T04:33:38;100238.41;;;-1.91;64.96
65534;BME280;53640;55.838;37.184;2024-01-30T04:36:08;100224.97;;;-2.01;64.94
65534;BME280;53640;55.838;37.184;2024-01-30T04:38:37;100229.91;;;-1.96;64.82
65534;BME280;53640;55.838;37.184;2024-01-30T04:41:03;100256.03;;;-1.79;64.96
65534;BME280;53640;55.838;37.184;2024-01-30T04:43:30;100247.22;;;-1.79;64.96
65534;BME280;53640;55.838;37.184;2024-01-30T04:45:59;100250.50;;;-1.76;64.53
65534;BME280;53640;55.838;37.184;2024-01-30T04:48:26;100236.00;;;-1.83;64.77
65534;BME280;53640;55.838;37.184;2024-01-30T04:50:53;100217.13;;;-2.02;65.00
65534;BME280;53640;55.838;37.184;2024-01-30T04:53:21;100218.47;;;-1.97;64.88
65534;BME280;53640;55.838;37.184;2024-01-30T04:55:47;100215.72;;;-1.95;64.61
65534;BME280;53640;55.838;37.184;2024-01-30T04:58:13;100228.66;;;-1.79;64.57
65534;BME280;53640;55.838;37.184;2024-01-30T05:00:40;100221.97;;;-1.96;64.80
65534;BME280;53640;55.838;37.184;2024-01-30T05:03:06;100236.22;;;-1.86;64.41
65534;BME280;53640;55.838;37.184;2024-01-30T05:05:33;100208.47;;;-1.93;64.31
65534;BME280;53640;55.838;37.184;2024-01-30T05:07:59;100167.63;;;-2.15;64.27
65534;BME280;53640;55.838;37.184;2024-01-30T05:10:26;100254.88;;;-1.64;64.60
65534;BME280;53640;55.838;37.184;2024-01-30T05:12:55;100185.78;;;-1.97;64.31
65534;BME280;53640;55.838;37.184;2024-01-30T05:15:21;100234.69;;;-1.66;64.21
65534;BME280;53640;55.838;37.184;2024-01-30T05:17:48;100256.53;;;-1.63;64.39
65534;BME280;53640;55.838;37.184;2024-01-30T05:20:16;100252.09;;;-1.62;64.05
65534;BME280;53640;55.838;37.184;2024-01-30T05:22:43;100245.69;;;-1.60;64.16
65534;BME280;53640;55.838;37.184;2024-01-30T05:25:12;100253.88;;;-1.63;64.08
65534;BME280;53640;55.838;37.184;2024-01-30T05:27:39;100235.06;;;-1.71;64.27
65534;BME280;53640;55.838;37.184;2024-01-30T05:30:06;100274.66;;;-1.56;64.18
65534;BME280;53640;55.838;37.184;2024-01-30T05:32:33;100237.72;;;-1.71;64.19
65534;BME280;53640;55.838;37.184;2024-01-30T05:35:00;100242.06;;;-1.70;64.39
65534;BME280;53640;55.838;37.184;2024-01-30T05:37:30;100279.50;;;-1.50;64.23
65534;BME280;53640;55.838;37.184;2024-01-30T05:39:56;100237.34;;;-1.66;64.36
65534;BME280;53640;55.838;37.184;2024-01-30T05:42:23;100210.53;;;-1.86;63.99
65534;BME280;53640;55.838;37.184;2024-01-30T05:44:50;100232.78;;;-1.64;64.18
65534;BME280;53640;55.838;37.184;2024-01-30T05:47:16;100268.53;;;-1.46;63.91
65534;BME280;53640;55.838;37.184;2024-01-30T05:49:43;100239.41;;;-1.59;63.90
65534;BME280;53640;55.838;37.184;2024-01-30T05:52:09;100233.75;;;-1.65;63.80
65534;BME280;53640;55.838;37.184;2024-01-30T05:54:36;100271.44;;;-1.49;64.06
65534;BME280;53640;55.838;37.184;2024-01-30T05:57:02;100274.69;;;-1.45;63.87
65534;BME280;53640;55.838;37.184;2024-01-30T05:59:30;100288.97;;;-1.35;63.82
65534;BME280;53640;55.838;37.184;2024-01-30T06:01:58;100178.78;;;-1.98;63.87
65534;BME280;53640;55.838;37.184;2024-01-30T06:04:27;100227.94;;;-1.70;63.84
65534;BME280;53640;55.838;37.184;2024-01-30T06:06:55;100248.59;;;-1.63;63.69
65534;BME280;53640;55.838;37.184;2024-01-30T06:09:21;100282.16;;;-1.39;63.94
65534;BME280;53640;55.838;37.184;2024-01-30T06:11:48;100253.88;;;-1.63;63.88
65534;BME280;53640;55.838;37.184;2024-01-30T06:14:14;100196.44;;;-1.86;63.80
65534;BME280;53640;55.838;37.184;2024-01-30T06:16:41;100272.13;;;-1.58;63.80
65534;BME280;53640;55.838;37.184;2024-01-30T06:19:08;100255.56;;;-1.62;63.77
65534;BME280;53640;55.838;37.184;2024-01-30T06:21:35;100284.34;;;-1.44;64.06
65534;BME280;53640;55.838;37.184;2024-01-30T06:24:05;100301.28;;;-1.34;63.87
65534;BME280;53640;55.838;37.184;2024-01-30T06:26:32;100285.56;;;-1.37;63.82
65534;BME280;53640;55.838;37.184;2024-01-30T06:28:58;100293.41;;;-1.36;63.88
65534;BME280;53640;55.838;37.184;2024-01-30T06:31:25;100300.56;;;-1.25;63.90
65534;BME280;53640;55.838;37.184;2024-01-30T06:33:54;100288.00;;;-1.34;63.52
65534;BME280;53640;55.838;37.184;2024-01-30T06:36:21;100270.09;;;-1.43;63.86
65534;BME280;53640;55.838;37.184;2024-01-30T06:38:49;100272.03;;;-1.45;63.82
65534;BME280;53640;55.838;37.184;2024-01-30T06:41:15;100260.31;;;-1.54;63.79
65534;BME280;53640;55.838;37.184;2024-01-30T06:43:42;100269.13;;;-1.53;63.76
65534;BME280;53640;55.838;37.184;2024-01-30T06:46:11;100293.91;;;-1.30;63.57
65534;BME280;53640;55.838;37.184;2024-01-30T06:48:39;100293.56;;;-1.26;63.52
65534;BME280;53640;55.838;37.184;2024-01-30T06:51:07;100312.53;;;-1.08;63.71
65534;BME280;53640;55.838;37.184;2024-01-30T06:53:33;100312.16;;;-1.15;63.46
65534;BME280;53640;55.838;37.184;2024-01-30T06:56:01;100332.69;;;-1.05;63.63
65534;BME280;53640;55.838;37.184;2024-01-30T06:58:27;100319.06;;;-1.12;63.50
65534;BME280;53640;55.838;37.184;2024-01-30T07:00:54;100280.50;;;-1.29;63.25
65534;BME280;53640;55.838;37.184;2024-01-30T07:03:21;100333.06;;;-0.99;63.23
65534;BME280;53640;55.838;37.184;2024-01-30T07:05:47;100333.31;;;-1.02;63.14
65534;BME280;53640;55.838;37.184;2024-01-30T07:08:15;100277.75;;;-1.27;63.22
65534;BME280;53640;55.838;37.184;2024-01-30T07:10:44;100247.53;;;-1.49;63.40
65534;BME280;53640;55.838;37.184;2024-01-30T07:13:11;100323.28;;;-0.98;63.21
65534;BME280;53640;55.838;37.184;2024-01-30T07:15:42;100307.22;;;-1.08;63.05
65534;BME280;53640;55.838;37.184;2024-01-30T07:18:14;100324.88;;;-0.96;63.15
65534;BME280;53640;55.838;37.184;2024-01-30T07:20:41;100260.09;;;-1.28;63.25
65534;BME280;53640;55.838;37.184;2024-01-30T07:23:13;100315.81;;;-1.04;63.30
65534;BME280;53640;55.838;37.184;2024-01-30T07:25:42;100300.56;;;-1.14;63.18
65534;BME280;53640;55.838;37.184;2024-01-30T07:28:22;100341.53;;;-0.94;63.19
65534;BME280;53640;55.838;37.184;2024-01-30T07:30:49;100325.47;;;-1.03;63.12
65534;BME280;53640;55.838;37.184;2024-01-30T07:33:17;100374.75;;;-0.88;63.45
65534;BME280;53640;55.838;37.184;2024-01-30T07:35:45;100241.75;;;-1.54;62.92
65534;BME280;53640;55.838;37.184;2024-01-30T07:38:12;100262.75;;;-1.40;63.00
65534;BME280;53640;55.838;37.184;2024-01-30T07:40:38;100344.69;;;-0.89;62.97
65534;BME280;53640;55.838;37.184;2024-01-30T07:43:05;100299.97;;;-1.06;62.80
65534;BME280;53640;55.838;37.184;2024-01-30T07:45:31;100286.81;;;-1.19;62.53
65534;BME280;53640;55.838;37.184;2024-01-30T07:48:00;100315.44;;;-1.00;63.08
65534;BME280;53640;55.838;37.184;2024-01-30T07:50:26;100347.69;;;-0.93;62.62
65534;BME280;53640;55.838;37.184;2024-01-30T07:52:53;100266.22;;;-1.50;62.73
65534;BME280;53640;55.838;37.184;2024-01-30T07:55:49;100293.91;;;-1.30;63.33
65534;BME280;53640;55.838;37.184;2024-01-30T07:58:19;100268.88;;;-1.39;62.86
65534;BME280;53640;55.838;37.184;2024-01-30T08:00:47;100198.50;;;-1.78;63.18
65534;BME280;53640;55.838;37.184;2024-01-30T08:03:15;100178.19;;;-2.02;63.10
65534;BME280;53640;55.838;37.184;2024-01-30T08:05:50;100193.41;;;-1.81;63.33
65534;BME280;53640;55.838;37.184;2024-01-30T08:08:31;100186.03;;;-1.89;63.41
65534;BME280;53640;55.838;37.184;2024-01-30T08:11:02;100185.81;;;-1.86;63.42
65534;BME280;53640;55.838;37.184;2024-01-30T08:16:43;100223.63;;;-1.60;63.34
65534;BME280;53640;55.838;37.184;2024-01-30T08:19:12;100292.72;;;-1.26;63.25
65534;BME280;53640;55.838;37.184;2024-01-30T08:21:47;100277.03;;;-1.18;63.27
65534;BME280;53640;55.838;37.184;2024-01-30T08:24:17;100175.69;;;-1.81;63.37
65534;BME280;53640;55.838;37.184;2024-01-30T08:26:54;100354.13;;;-0.73;63.05
65534;BME280;53640;55.838;37.184;2024-01-30T08:29:23;100248.63;;;-1.29;63.25
65534;BME280;53640;55.838;37.184;2024-01-30T08:31:50;100337.94;;;-0.81;62.80
65534;BME280;53640;55.838;37.184;2024-01-30T08:34:23;100172.09;;;-1.80;62.86
65534;BME280;53640;55.838;37.184;2024-01-30T08:37:02;100153.22;;;-1.88;63.64
65534;BME280;53640;55.838;37.184;2024-01-30T08:40:08;100215.28;;;-1.67;63.28
65534;BME280;53640;55.838;37.184;2024-01-30T08:43:18;100346.59;;;-0.68;63.39
65534;BME280;53640;55.838;37.184;2024-01-30T08:47:20;100348.31;;;-0.67;63.19
65534;BME280;53640;55.838;37.184;2024-01-30T08:51:35;100217.84;;;-1.65;63.59
65534;BME280;53640;55.838;37.184;2024-01-30T08:56:06;100354.59;;;-0.79;63.59
65534;BME280;53640;55.838;37.184;2024-01-30T08:59:55;100283.03;;;-1.39;63.68
65534;BME280;53640;55.838;37.184;2024-01-30T09:06:10;100167.97;;;-1.95;63.68
65534;BME280;53640;55.838;37.184;2024-01-30T09:08:37;100195.09;;;-1.80;63.51
65534;BME280;53640;55.838;37.184;2024-01-30T09:11:20;100244.72;;;-1.59;63.72
65534;BME280;53640;55.838;37.184;2024-01-30T09:13:58;100236.53;;;-1.55;63.89
65534;BME280;53640;55.838;37.184;2024-01-30T09:21:58;100342.88;;;-0.77;63.86
65534;BME280;53640;55.838;37.184;2024-01-30T09:25:02;100295.75;;;-1.08;63.73
65534;BME280;53640;55.838;37.184;2024-01-30T09:27:37;100167.25;;;-1.86;63.72
65534;BME280;53640;55.838;37.184;2024-01-30T09:30:09;100220.00;;;-1.59;63.59
65534;BME280;53640;55.838;37.184;2024-01-30T09:32:40;100351.81;;;-0.67;63.28
65534;BME280;53640;55.838;37.184;2024-01-30T09:35:14;100234.50;;;-1.29;63.32
65534;BME280;53640;55.838;37.184;2024-01-30T09:37:53;100256.50;;;-1.16;63.27
65534;BME280;53640;55.838;37.184;2024-01-30T09:40:55;100256.16;;;-1.12;63.19
65534;BME280;53640;55.838;37.184;2024-01-30T09:43:31;100254.19;;;-1.10;63.11
65534;BME280;53640;55.838;37.184;2024-01-30T09:50:37;100179.09;;;-1.45;62.91
65534;BME280;53640;55.838;37.184;2024-01-30T09:53:08;100353.03;;;-0.48;63.02
65534;BME280;53640;55.838;37.184;2024-01-30T09:55:35;100232.22;;;-1.23;63.01
65534;BME280;53640;55.838;37.184;2024-01-30T09:58:03;100328.84;;;-0.68;62.89
65534;BME280;53640;55.838;37.184;2024-01-30T10:00:29;100175.38;;;-1.54;63.10
65534;BME280;53640;55.838;37.184;2024-01-30T10:02:56;100270.50;;;-1.03;63.15
65534;BME280;53640;55.838;37.184;2024-01-30T10:05:26;100341.66;;;-0.50;63.03
65534;BME280;53640;55.838;37.184;2024-01-30T10:07:57;100333.22;;;-0.55;62.82
65534;BME280;53640;55.838;37.184;2024-01-30T10:10:26;100257.69;;;-0.98;62.85
65534;BME280;53640;55.838;37.184;2024-01-30T10:12:54;100160.16;;;-1.52;62.71
65534;BME280;53640;55.838;37.184;2024-01-30T10:15:22;100161.38;;;-1.45;62.87
65534;BME280;53640;55.838;37.184;2024-01-30T10:17:49;100228.34;;;-0.96;62.73
65534;BME280;53640;55.838;37.184;2024-01-30T10:20:15;100323.00;;;-0.28;62.84
65534;BME280;53640;55.838;37.184;2024-01-30T10:22:44;100211.69;;;-1.10;62.59
65534;BME280;53640;55.838;37.184;2024-01-30T10:25:12;100231.97;;;-0.86;62.42
65534;BME280;53640;55.838;37.184;2024-01-30T10:27:41;100328.09;;;-0.25;62.70
65534;BME280;53640;55.838;37.184;2024-01-30T10:30:09;100274.72;;;-0.55;62.42
65534;BME280;53640;55.838;37.184;2024-01-30T10:32:36;100168.72;;;-1.15;62.29
65534;BME280;53640;55.838;37.184;2024-01-30T10:35:03;100220.38;;;-0.85;62.07
65534;BME280;53640;55.838;37.184;2024-01-30T10:37:31;100276.25;;;-0.53;62.07
65534;BME280;53640;55.838;37.184;2024-01-30T10:40:02;100334.34;;;-0.15;61.84
65534;BME280;53640;55.838;37.184;2024-01-30T10:42:40;100315.75;;;-0.26;62.04
65534;BME280;53640;55.838;37.184;2024-01-30T10:45:14;100342.94;;;-0.11;61.88
65534;BME280;53640;55.838;37.184;2024-01-30T10:48:01;100272.03;;;-0.55;61.72
65534;BME280;53640;55.838;37.184;2024-01-30T10:50:35;100319.22;;;-0.14;62.15
65534;BME280;53640;55.838;37.184;2024-01-30T10:53:07;100252.44;;;-0.43;61.92
65534;BME280;53640;55.838;37.184;2024-01-30T10:55:37;100148.91;;;-1.11;61.91
65534;BME280;53640;55.838;37.184;2024-01-30T10:58:08;100174.63;;;-1.00;61.96
65534;BME280;53640;55.838;37.184;2024-01-30T11:00:38;100134.78;;;-1.11;61.66
65534;BME280;53640;55.838;37.184;2024-01-30T11:03:05;100209.13;;;-0.77;61.61
65534;BME280;53640;55.838;37.184;2024-01-30T11:05:34;100321.75;;;-0.13;61.76
65534;BME280;53640;55.838;37.184;2024-01-30T11:08:12;100297.72;;;-0.22;61.83
65534;BME280;53640;55.838;37.184;2024-01-30T11:10:48;100275.38;;;-0.31;61.24
65534;BME280;53640;55.838;37.184;2024-01-30T11:13:15;100232.53;;;-0.60;61.67
65534;BME280;53640;55.838;37.184;2024-01-30T11:15:42;100279.00;;;-0.32;61.37
65534;BME280;53640;55.838;37.184;2024-01-30T11:18:11;100157.47;;;-1.07;61.35
65534;BME280;53640;55.838;37.184;2024-01-30T11:20:49;100323.19;;;-0.08;61.47
65534;BME280;53640;55.838;37.184;2024-01-30T11:23:32;100188.25;;;-0.93;64.59
65534;BME280;53640;55.838;37.184;2024-01-30T11:26:06;100160.50;;;-1.23;64.23
65534;BME280;53640;55.838;37.184;2024-01-30T11:28:33;100248.38;;;-0.70;64.20
65534;BME280;53640;55.838;37.184;2024-01-30T11:31:20;100301.69;;;-0.60;64.59
65534;BME280;53640;55.838;37.184;2024-01-30T11:34:00;100197.94;;;-1.26;64.58
65534;BME280;53640;55.838;37.184;2024-01-30T11:36:32;100364.84;;;-0.19;63.54
65534;BME280;53640;55.838;37.184;2024-01-30T11:39:26;100219.19;;;-1.03;64.31
65534;BME280;53640;55.838;37.184;2024-01-30T11:41:56;100258.88;;;-0.79;64.65
65534;BME280;53640;55.838;37.184;2024-01-30T11:44:47;100338.59;;;-0.34;64.61
65534;BME280;53640;55.838;37.184;2024-01-30T11:47:35;100188.53;;;-1.19;64.18
65534;BME280;53640;55.838;37.184;2024-01-30T11:50:10;100228.81;;;-0.91;64.23
65534;BME280;53640;55.838;37.184;2024-01-30T11:52:37;100213.63;;;-1.00;64.18
65534;BME280;53640;55.838;37.184;2024-01-30T11:55:13;100200.81;;;-1.06;64.47
65534;BME280;53640;55.838;37.184;2024-01-30T11:57:41;100203.47;;;-1.06;64.74
65534;BME280;53640;55.838;37.184;2024-01-30T12:00:18;100377.25;;;-0.08;64.04
65534;BME280;53640;55.838;37.184;2024-01-30T12:02:53;100255.63;;;-0.72;65.36
65534;BME280;53640;55.838;37.184;2024-01-30T12:05:26;100340.75;;;-0.17;65.16
65534;BME280;53640;55.838;37.184;2024-01-30T12:07:57;100288.72;;;-0.53;65.18
65534;BME280;53640;55.838;37.184;2024-01-30T12:10:32;100284.84;;;-0.49;65.10
65534;BME280;53640;55.838;37.184;2024-01-30T12:13:02;100235.09;;;-0.81;65.08
65534;BME280;53640;55.838;37.184;2024-01-30T12:15:31;100323.22;;;-0.20;65.97
65534;BME280;53640;55.838;37.184;2024-01-30T12:18:05;100277.59;;;-0.47;65.02
65534;BME280;53640;55.838;37.184;2024-01-30T12:20:37;100331.69;;;-0.15;64.34
65534;BME280;53640;55.838;37.184;2024-01-30T12:23:04;100251.50;;;-0.65;64.30
65534;BME280;53640;55.838;37.184;2024-01-30T12:25:31;100246.53;;;-0.58;64.21
65534;BME280;53640;55.838;37.184;2024-01-30T12:27:57;100330.19;;;-0.07;64.25
65534;BME280;53640;55.838;37.184;2024-01-30T12:30:24;100258.38;;;-0.51;63.85
65534;BME280;53640;55.838;37.184;2024-01-30T12:32:53;100219.03;;;-0.79;63.54
65534;BME280;53640;55.838;37.184;2024-01-30T12:35:21;100375.88;;;0.20;63.52
65534;BME280;53640;55.838;37.184;2024-01-30T12:37:50;100294.75;;;-0.40;62.70
65534;BME280;53640;55.838;37.184;2024-01-30T12:40:17;100384.59;;;0.11;63.07
65534;BME280;53640;55.838;37.184;2024-01-30T12:42:48;100231.25;;;-0.88;63.46
65534;BME280;53640;55.838;37.184;2024-01-30T12:45:19;100315.63;;;-0.24;63.36
65534;BME280;53640;55.838;37.184;2024-01-30T12:47:48;100342.06;;;-0.12;63.03
65534;BME280;53640;55.838;37.184;2024-01-30T12:50:15;100282.19;;;-0.61;62.70
65534;BME280;53640;55.838;37.184;2024-01-30T12:52:45;100342.38;;;-0.26;63.24
65534;BME280;53640;55.838;37.184;2024-01-30T12:55:11;100374.72;;;-0.09;63.33
65534;BME280;53640;55.838;37.184;2024-01-30T12:57:39;100386.34;;;0.01;63.82
65534;BME280;53640;55.838;37.184;2024-01-30T13:00:06;100394.78;;;0.06;63.92
65534;BME280;53640;55.838;37.184;2024-01-30T13:02:35;100381.72;;;0.03;63.21
65534;BME280;53640;55.838;37.184;2024-01-30T13:05:16;100390.53;;;0.03;63.26
65534;BME280;53640;55.838;37.184;2024-01-30T13:07:42;100355.66;;;-0.26;63.46
65534;BME280;53640;55.838;37.184;2024-01-30T13:10:12;100367.25;;;-0.16;63.52
65534;BME280;53640;55.838;37.184;2024-01-30T13:12:39;100377.03;;;-0.16;63.40
65534;BME280;53640;55.838;37.184;2024-01-30T13:15:07;100365.34;;;-0.25;63.39